Akron, CO

4:14 AM MDT on August 30, 2014 (GMT -0600)
Akron-Washington County | Change Station
CLOSE
Current Station
Airport
Location: Akron,
Elevation: 4662 ft
Nearby Weather Stations

Elev 4662 ft 40.17 °N, 103.21 °W | Updated 21 minutes ago

Clear
Clear
58 °F
Feels Like 58 °F
N
6
Wind Variable Wind from SSE

Today
High -- | Low -- °F
--% Chance of Precip.
Yesterday
High -- | Low -- °F
Precip. -- in
6:18 AM 7:27 PM
Waxing Crescent, 21% visible
Pressure 29.93 in
Visibility 10.0 miles
Clouds Clear
Dew Point 52 °F
Humidity 81%
Rainfall 0.00 in
Snow Depth Not available.
UV 0 out of 12
Pollen 10.40 out of 12
Air Quality Not available.
Flu Activity Not available.
METAR KAKO 300953Z AUTO 15005KT 10SM CLR 14/11 A3008 RMK AO2 SLP135 T01440111

More Conditions Fewer Conditions

Pressure 29.93 in
Visibility 10.0 miles
Clouds Clear
Dew Point 52 °F
Humidity 81%
Rainfall 0.00 in
Snow Depth Not available.
UV 0 out of 12
Pollen 10.40 out of 12
Air Quality Not available.
Flu Activity Not available.
METAR KAKO 300953Z AUTO 15005KT 10SM CLR 14/11 A3008 RMK AO2 SLP135 T01440111

More Conditions Fewer Conditions

10-Day Weather Forecast

Almanac

Astronomy

Aug. 30, 2014 Rise Set
Actual Time 6:18 AM MDT 7:27 PM MDT
Civil Twilight 5:50 AM MDT 7:55 PM MDT
Nautical Twilight 5:17 AM MDT 8:28 PM MDT
Astronomical Twilight 4:42 AM MDT 9:03 PM MDT
Moon 11:08 AM MDT 10:03 PM MDT
Length of Visible Light 14h 04m
Length of Day
13h 08m
Tomorrow will be 2m 31s shorter.
Waxing Crescent, 21% of the Moon is Illuminated
Today
Waxing Crescent
Sep 2
First Quarter
Sep 8
Full
Sep 15
Last Quarter
Sep 24
New

Today's Extremes

State Highs State Lows

Community

WunderPhotos

Upload Photos

1,748,481 photos uploaded!

Nearby

Snow Depth

Station Depth Elevation
Niwot 1 in 9910 ft
University Camp 0 in 10300 ft
Copeland Lake 0 in 8600 ft
Glen Cove 0 in 11460 ft
Echo Lake 0 in 10600 ft

Earthquake Activity

City Distance Mag. Time & Date
No recent earthquake activity has been reported nearby.
Minimum magnitude displayed is 2.5.

Coastal Water Temperatures

Place Temperature
No Stations Reporting

Nearby Weather Stations